Terminal Aerodrome Forecast
Issued by NWS Albany, NY

Home | Current Version | Previous Version | Text Only | Print | Product List | Glossary On
Versions: 1 2 3 4 5 6 7 8 9 10 11 12 13 14 15 16 17 18 19 20 21 22 23 24
000
FTUS41 KALY 192331
TAFGFL
TAF
KGFL 192331Z 2000/2024 05005KT P6SM SCT250
     FM200600 01003KT 3SM BR VCFG SCT002 BKN250
      TEMPO 2007/2011 1SM BR BKN002
     FM201400 01009KT P6SM SCT250
     FM201900 02010KT P6SM SCT050
     FM202200 01009KT P6SM SCT250=

USA.gov is the U.S. government's official web portal to all federal, state and local government web resources and services.